Time;durP1;ratioP1;P1;durP2;ratioP2;P2;SDS_P1;SDS_P2;PMS_P1;PMS_P2;Temp;Humidity;BMP_temperature;BMP_pressure;BME280_temperature;BME280_humidity;BME280_pressure;Samples;Min_cycle;Max_cycle;Signal;HPM_P1;HPM_P2
2022/12/27 00:00:26;;;;;;;1.27;0.70;;;;;;;-144.32;100.00;68061.97;10340790;28;20497;-79
2022/12/27 00:05:27;;;;;;;0.57;0.57;;;;;;;-144.32;100.00;68061.97;10342107;28;20440;-78
2022/12/27 00:10:27;;;;;;;1.20;0.55;;;;;;;-144.32;100.00;68061.97;10344295;28;20068;-79
2022/12/27 00:15:28;;;;;;;1.40;0.70;;;;;;;-144.32;100.00;68061.97;10351064;28;20050;-79
2022/12/27 00:20:28;;;;;;;1.08;0.70;;;;;;;-144.32;100.00;68061.97;10352162;28;20037;-79
2022/12/27 00:25:30;;;;;;;1.38;0.82;;;;;;;-144.32;100.00;68061.97;10367689;28;20077;-80
2022/12/27 00:30:31;;;;;;;1.48;0.80;;;;;;;-144.32;100.00;68061.97;10347142;28;20046;-79
2022/12/27 00:35:31;;;;;;;1.33;0.85;;;;;;;-144.32;100.00;68061.97;10347885;28;20509;-78
2022/12/27 00:40:32;;;;;;;1.58;0.93;;;;;;;-144.32;100.00;68061.97;10335121;28;20555;-78
2022/12/27 00:45:34;;;;;;;1.08;0.90;;;;;;;-144.32;100.00;68061.97;10349608;28;20073;-75
2022/12/27 00:50:34;;;;;;;1.15;0.82;;;;;;;-144.32;100.00;68061.97;10347263;28;20045;-79
2022/12/27 00:55:35;;;;;;;2.78;0.80;;;;;;;-144.32;100.00;68061.97;10347617;28;20057;-78
2022/12/27 01:00:36;;;;;;;2.22;0.90;;;;;;;-144.32;100.00;68061.97;10351621;28;20046;-78
2022/12/27 01:05:37;;;;;;;0.90;0.82;;;;;;;-144.32;100.00;68061.97;10346710;28;20041;-77
2022/12/27 01:10:39;;;;;;;2.40;0.93;;;;;;;-144.32;100.00;68061.97;10344428;28;20049;-75
2022/12/27 01:15:41;;;;;;;1.58;0.90;;;;;;;-144.32;100.00;68061.97;10347306;28;20511;-75
2022/12/27 01:20:41;;;;;;;2.42;0.90;;;;;;;-144.32;100.00;68061.97;10349198;28;20078;-75
2022/12/27 01:25:42;;;;;;;1.30;0.85;;;;;;;-144.32;100.00;68061.97;10350570;28;20558;-76
2022/12/27 01:30:44;;;;;;;1.55;0.95;;;;;;;-144.32;100.00;68061.97;10338639;28;20046;-76
2022/12/27 01:35:44;;;;;;;3.08;1.15;;;;;;;-144.32;100.00;68061.97;10339899;28;20041;-75
2022/12/27 01:40:45;;;;;;;2.25;0.93;;;;;;;-144.32;100.00;68061.97;10354922;28;20042;-77
2022/12/27 01:45:46;;;;;;;1.30;1.20;;;;;;;-144.32;100.00;68061.97;10342014;28;20050;-76
2022/12/27 01:51:02;;;;;;;2.20;1.10;;;;;;;-144.32;100.00;68061.97;10354350;28;20490;-77
2022/12/27 01:56:08;;;;;;;1.00;0.98;;;;;;;-144.32;100.00;68061.97;10351530;28;20064;-78
2022/12/27 02:01:13;;;;;;;2.95;1.27;;;;;;;-144.32;100.00;68061.97;10348607;28;20521;-77
2022/12/27 02:06:14;;;;;;;1.27;0.77;;;;;;;-144.32;100.00;68061.97;10357085;28;20054;-77
2022/12/27 02:11:49;;;;;;;1.70;0.93;;;;;;;-144.32;100.00;68061.97;10354259;28;20487;-77
2022/12/27 02:16:40;;;;;;;;;;;;;;;-144.32;100.00;68061.97;10352571;28;20058;-75
2022/12/27 02:22:06;;;;;;;2.65;1.00;;;;;;;-144.32;100.00;68061.97;10355866;28;19929;-76
2022/12/27 02:27:44;;;;;;;2.90;1.05;;;;;;;-144.32;100.00;68061.97;10352382;28;20065;-77
2022/12/27 02:32:57;;;;;;;;;;;;;;;-144.32;100.00;68061.97;10358211;28;20061;-77
2022/12/27 02:38:09;;;;;;;1.75;0.90;;;;;;;-144.32;100.00;68061.97;10356528;28;20019;-77
2022/12/27 02:54:10;;;;;;;2.78;1.15;;;;;;;-144.32;100.00;68061.97;10350189;28;20535;-77
2022/12/27 02:59:27;;;;;;;1.15;1.00;;;;;;;-144.32;100.00;68061.97;10351922;28;20053;-77
2022/12/27 03:04:50;;;;;;;2.75;0.93;;;;;;;-144.32;100.00;68061.97;10348588;28;20088;-78
2022/12/27 03:15:55;;;;;;;1.20;0.88;;;;;;;-144.32;100.00;68061.97;10354586;28;20504;-76
2022/12/27 03:26:22;;;;;;;2.28;1.05;;;;;;;-144.32;100.00;68061.97;10360284;28;20077;-77
2022/12/27 03:48:04;;;;;;;1.55;0.80;;;;;;;-144.32;100.00;68061.97;10341118;28;20050;-76
2022/12/27 03:53:23;;;;;;;2.88;1.20;;;;;;;-144.32;100.00;68061.97;10351706;28;20050;-75
2022/12/27 03:58:23;;;;;;;4.60;1.33;;;;;;;-144.32;100.00;68061.97;10327889;28;20124;-77
2022/12/27 04:03:24;;;;;;;2.50;1.27;;;;;;;-144.32;100.00;68061.97;10340794;28;20774;-77
2022/12/27 04:35:09;;;;;;;1.48;1.33;;;;;;;;;;10586591;28;20035;-77
2022/12/27 04:56:06;;;;;;;2.80;1.38;;;;;;;;;;10583032;28;20063;-77
2022/12/27 05:06:26;;;;;;;1.35;1.25;;;;;;;;;;10577387;28;20478;-76
2022/12/27 05:16:45;;;;;;;1.55;1.17;;;;;;;;;;10629306;28;20066;-78
2022/12/27 05:27:09;;;;;;;6.28;3.50;;;;;;;;;;10584067;28;20063;-76
2022/12/27 05:32:10;;;;;;;9.77;3.20;;;;;;;;;;10590717;28;20050;-77
2022/12/27 05:37:10;;;;;;;2.88;1.38;;;;;;;;;;10577792;28;20487;-76
2022/12/27 05:42:10;;;;;;;3.85;1.70;;;;;;;;;;10554050;28;20035;-76
2022/12/27 05:47:11;;;;;;;4.85;2.25;;;;;;;;;;10553457;28;20050;-76
2022/12/27 05:52:13;;;;;;;5.15;2.60;;;;;;;;;;10556480;28;20927;-78
2022/12/27 05:57:13;;;;;;;4.28;2.05;;;;;;;;;;10545613;28;20096;-76
2022/12/27 06:02:14;;;;;;;5.68;1.77;;;;;;;;;;10549872;28;20064;-78
2022/12/27 06:07:15;;;;;;;2.13;1.70;;;;;;;;;;10549421;28;20398;-77
2022/12/27 06:12:15;;;;;;;1.60;1.23;;;;;;;;;;10527629;28;20044;-79
2022/12/27 06:17:16;;;;;;;3.50;1.70;;;;;;;;;;10555703;28;20039;-78
2022/12/27 06:22:17;;;;;;;3.22;1.50;;;;;;;;;;10551351;28;20023;-76
2022/12/27 06:27:18;;;;;;;4.28;3.00;;;;;;;;;;10549563;28;20089;-78
2022/12/27 06:32:20;;;;;;;3.55;1.75;;;;;;;;;;10554075;28;20118;-75
2022/12/27 06:37:20;;;;;;;3.75;1.70;;;;;;;;;;10555764;28;20372;-73
2022/12/27 06:42:21;;;;;;;6.13;1.92;;;;;;;;;;10541525;28;20040;-77
2022/12/27 06:47:21;;;;;;;2.70;1.70;;;;;;;;;;10530252;28;20509;-75
2022/12/27 06:52:22;;;;;;;5.40;1.98;;;;;;;;;;10544993;27;20638;-76
2022/12/27 06:57:22;;;;;;;4.32;2.10;;;;;;;;;;10557047;27;20036;-75
2022/12/27 07:02:22;;;;;;;4.90;2.00;;;;;;;;;;10544302;27;20077;-76
2022/12/27 07:07:23;;;;;;;4.97;2.00;;;;;;;;;;10545786;27;20036;-76
2022/12/27 07:12:24;;;;;;;7.45;2.40;;;;;;;;;;10542125;28;20028;-77
2022/12/27 07:17:24;;;;;;;5.63;2.25;;;;;;;;;;10525535;27;20211;-75
2022/12/27 07:22:25;;;;;;;2.88;1.90;;;;;;;;;;10546658;28;20028;-75
2022/12/27 07:27:25;;;;;;;4.35;2.70;;;;;;;;;;10555844;27;20094;-75
2022/12/27 07:32:27;;;;;;;3.85;2.47;;;;;;;;;;10547490;28;20080;-77
2022/12/27 07:37:27;;;;;;;4.37;2.40;;;;;;;;;;10559549;28;20097;-77
2022/12/27 07:42:28;;;;;;;4.78;3.28;;;;;;;;;;10551829;28;20308;-78
2022/12/27 07:47:28;;;;;;;5.82;2.63;;;;;;;;;;10550874;28;20139;-76
2022/12/27 07:52:29;;;;;;;3.42;2.00;;;;;;;;;;10550066;28;20387;-77
2022/12/27 07:57:29;;;;;;;4.45;2.53;;;;;;;;;;10535495;28;20033;-73
2022/12/27 08:02:29;;;;;;;5.45;2.20;;;;;;;;;;10556506;28;20032;-74
2022/12/27 08:07:30;;;;;;;3.42;2.03;;;;;;;;;;10546857;28;20044;-76
2022/12/27 08:12:30;;;;;;;3.75;2.25;;;;;;;;;;10546691;28;20031;-76
2022/12/27 08:17:31;;;;;;;3.85;2.40;;;;;;;;;;10551185;28;20035;-77
2022/12/27 08:22:33;;;;;;;5.28;2.40;;;;;;;;;;10551180;28;20039;-77
2022/12/27 08:27:33;;;;;;;6.75;3.38;;;;;;;;;;10558789;28;20047;-77
2022/12/27 08:32:34;;;;;;;10.20;4.30;;;;;;;;;;10543743;28;20373;-77
2022/12/27 08:37:34;;;;;;;7.13;4.30;;;;;;;;;;10553779;28;20937;-77
2022/12/27 08:42:34;;;;;;;3.63;2.40;;;;;;;;;;10556207;28;20402;-77
2022/12/27 08:47:35;;;;;;;5.50;2.40;;;;;;;;;;10555691;28;20876;-77
2022/12/27 08:52:36;;;;;;;3.17;2.10;;;;;;;;;;10551938;28;20796;-77
2022/12/27 08:57:36;;;;;;;4.80;2.20;;;;;;;;;;10557914;28;20357;-76
2022/12/27 09:02:36;;;;;;;3.43;2.10;;;;;;;;;;10562434;28;20298;-77
2022/12/27 09:07:37;;;;;;;5.28;2.92;;;;;;;;;;10565590;28;20667;-78
2022/12/27 09:12:39;;;;;;;5.80;2.20;;;;;;;;;;10543466;28;20028;-78
2022/12/27 09:17:46;;;;;;;3.33;2.15;;;;;;;;;;10549553;28;20035;-78
2022/12/27 09:22:50;;;;;;;5.95;2.40;;;;;;;;;;10566217;28;20071;-78
2022/12/27 09:27:51;;;;;;;5.07;2.25;;;;;;;;;;10563271;28;20070;-78
2022/12/27 09:32:51;;;;;;;4.95;2.13;;;;;;;;;;10573513;28;20093;-79
2022/12/27 09:37:53;;;;;;;4.68;1.90;;;;;;;;;;10568483;28;20110;-79
2022/12/27 09:43:08;;;;;;;3.63;2.20;;;;;;;;;;10564114;28;20035;-78
2022/12/27 09:48:28;;;;;;;4.57;1.95;;;;;;;;;;10558619;28;20051;-78
2022/12/27 09:53:45;;;;;;;5.10;2.60;;;;;;;;;;10539544;28;20040;-78
2022/12/27 09:58:51;;;;;;;4.55;1.83;;;;;;;;;;10545088;28;20384;-78
2022/12/27 10:03:52;;;;;;;3.97;1.98;;;;;;;;;;10542754;28;20412;-75
2022/12/27 10:09:12;;;;;;;5.90;1.52;;;;;;;;;;10573896;28;20074;-76
2022/12/27 10:14:31;;;;;;;3.92;1.73;;;;;;;;;;10561639;28;20044;-77
2022/12/27 10:19:57;;;;;;;4.00;1.92;;;;;;;;;;10550822;28;20058;-76
2022/12/27 10:24:58;;;;;;;4.30;1.50;;;;;;;;;;10540808;28;20035;-79
2022/12/27 10:30:00;;;;;;;4.32;1.60;;;;;;;;;;10545665;28;20043;-77
2022/12/27 10:35:01;;;;;;;4.40;1.45;;;;;;;;;;10556989;28;20044;-78
2022/12/27 10:40:12;;;;;;;4.63;2.65;;;;;;;;;;10560007;28;20139;-78
2022/12/27 10:45:28;;;;;;;2.90;2.08;;;;;;;;;;10552140;28;20032;-77
2022/12/27 10:50:30;;;;;;;7.20;2.45;;;;;;;;;;10547939;28;20043;-79
2022/12/27 10:55:37;;;;;;;7.82;2.28;;;;;;;;;;10577378;28;20104;-77
2022/12/27 11:00:51;;;;;;;2.80;1.35;;;;;;;;;;10563443;28;20043;-78
2022/12/27 11:06:05;;;;;;;5.43;2.00;;;;;;;;;;10557767;28;20048;-79
2022/12/27 11:11:26;;;;;;;4.97;1.60;;;;;;;;;;10551201;28;20555;-78
2022/12/27 11:16:30;;;;;;;3.70;2.10;;;;;;;;;;10553059;28;20031;-78
2022/12/27 11:21:36;;;;;;;3.03;1.73;;;;;;;;;;10546640;28;20127;-78
2022/12/27 11:26:41;;;;;;;3.92;2.00;;;;;;;;;;10537940;28;20044;-78
2022/12/27 11:31:47;;;;;;;4.25;1.58;;;;;;;;;;10558875;28;20036;-79
2022/12/27 11:36:48;;;;;;;3.60;1.40;;;;;;;;;;10536815;28;20126;-79
2022/12/27 11:41:50;;;;;;;2.60;1.38;;;;;;;;;;10548752;28;20036;-78
2022/12/27 11:47:00;;;;;;;3.33;1.48;;;;;;;;;;10560669;28;20040;-80
2022/12/27 11:52:33;;;;;;;3.17;1.40;;;;;;;;;;10573253;28;20050;-79
2022/12/27 11:57:59;;;;;;;1.67;1.30;;;;;;;;;;10573603;28;20040;-80
2022/12/27 12:03:21;;;;;;;2.72;1.48;;;;;;;;;;10552779;28;20046;-80
2022/12/27 12:08:34;;;;;;;5.70;1.73;;;;;;;;;;10562287;28;20484;-79
2022/12/27 12:14:12;;;;;;;3.58;1.63;;;;;;;;;;10564256;28;20043;-80
2022/12/27 12:19:50;;;;;;;4.32;1.60;;;;;;;;;;10598138;28;20055;-79
2022/12/27 12:25:22;;;;;;;3.85;1.83;;;;;;;;;;10582368;28;20046;-80
2022/12/27 12:30:45;;;;;;;3.75;1.88;;;;;;;;;;10528303;28;20055;-79
2022/12/27 12:36:24;;;;;;;3.72;1.35;;;;;;;;;;10592830;28;20052;-81
2022/12/27 12:41:44;;;;;;;2.17;1.50;;;;;;;;;;10559927;28;20054;-79
2022/12/27 12:47:18;;;;;;;3.28;1.75;;;;;;;;;;10578125;28;20039;-79
2022/12/27 12:52:40;;;;;;;2.95;1.48;;;;;;;;;;10568848;28;20083;-78
2022/12/27 12:57:40;;;;;;;4.85;1.75;;;;;;;;;;10558439;28;20032;-80
2022/12/27 13:02:56;;;;;;;3.33;1.43;;;;;;;;;;10562405;28;20545;-78
2022/12/27 13:08:19;;;;;;;5.45;1.85;;;;;;;;;;10535807;28;20596;-78
2022/12/27 13:13:46;;;;;;;3.17;1.80;;;;;;;;;;10514064;28;20055;-79
2022/12/27 13:18:47;;;;;;;4.00;1.40;;;;;;;;;;10550845;28;20040;-81
2022/12/27 13:23:55;;;;;;;7.45;1.70;;;;;;;;;;10560344;28;20306;-78
2022/12/27 13:28:55;;;;;;;5.00;1.52;;;;;;;;;;10542635;28;20148;-80
2022/12/27 13:34:14;;;;;;;2.93;1.60;;;;;;;;;;10559105;28;20107;-77
2022/12/27 13:39:18;;;;;;;4.00;1.63;;;;;;;;;;10545914;28;20393;-80
2022/12/27 13:44:24;;;;;;;4.25;1.60;;;;;;;;;;10546783;28;20040;-78
2022/12/27 13:49:27;;;;;;;3.30;1.52;;;;;;;;;;10557195;28;20047;-78
2022/12/27 13:54:47;;;;;;;3.53;1.80;;;;;;;;;;10537869;27;20051;-79
2022/12/27 14:00:08;;;;;;;3.55;1.45;;;;;;;;;;10522376;27;20036;-78
2022/12/27 14:05:38;;;;;;;6.43;1.60;;;;;;;;;;10555788;27;20130;-80
2022/12/27 14:10:48;;;;;;;3.63;1.50;;;;;;;;;;10547218;28;20055;-78
2022/12/27 14:16:08;;;;;;;3.50;1.48;;;;;;;;;;10538030;28;20039;-76
2022/12/27 14:21:14;;;;;;;2.70;1.75;;;;;;;;;;10568911;28;20089;-79
2022/12/27 14:26:14;;;;;;;5.13;2.88;;;;;;;;;;10561995;28;20042;-78
2022/12/27 14:31:41;;;;;;;3.17;1.40;;;;;;;;;;10589212;28;20115;-80
2022/12/27 14:37:00;;;;;;;2.97;1.23;;;;;;;;;;10501439;28;20130;-81
2022/12/27 14:42:19;;;;;;;3.92;1.65;;;;;;;;;;10560615;28;20038;-79
2022/12/27 14:47:26;;;;;;;4.72;1.70;;;;;;;;;;10551290;28;20535;-76
2022/12/27 14:52:45;;;;;;;3.75;1.83;;;;;;;;;;10532776;28;20043;-77
2022/12/27 14:58:04;;;;;;;4.80;2.67;;;;;;;;;;10532443;28;20471;-77
2022/12/27 15:03:13;;;;;;;6.53;2.10;;;;;;;;;;10549800;28;20028;-81
2022/12/27 15:08:20;;;;;;;5.18;2.53;;;;;;;;;;10547247;28;20415;-80
2022/12/27 15:13:50;;;;;;;5.38;2.25;;;;;;;;;;10543406;27;20047;-78
2022/12/27 15:18:53;;;;;;;4.78;2.40;;;;;;;;;;10462564;28;20058;-78
2022/12/27 15:23:59;;;;;;;5.53;2.40;;;;;;;;;;10544886;28;20043;-81
2022/12/27 15:29:02;;;;;;;4.75;2.50;;;;;;;;;;10554380;27;20069;-80
2022/12/27 15:34:25;;;;;;;5.63;2.55;;;;;;;;;;10558519;28;20054;-77
2022/12/27 15:39:33;;;;;;;4.00;2.13;;;;;;;;;;10553126;27;20468;-78
2022/12/27 15:44:54;;;;;;;9.48;2.55;;;;;;;;;;10530421;28;20063;-79
2022/12/27 15:50:14;;;;;;;3.97;2.47;;;;;;;;;;10552953;28;20445;-77
2022/12/27 15:55:29;;;;;;;3.70;2.58;;;;;;;;;;10535241;28;20120;-78
2022/12/27 16:00:30;;;;;;;4.20;2.65;;;;;;;;;;10546427;28;20036;-79
2022/12/27 16:05:44;;;;;;;4.82;2.85;;;;;;;;;;10523578;28;20051;-79
2022/12/27 16:10:49;;;;;;;9.35;4.22;;;;;;;;;;10525162;28;20074;-81
2022/12/27 16:15:53;;;;;;;4.90;3.38;;;;;;;;;;10549150;28;20130;-78
2022/12/27 16:20:55;;;;;;;6.10;3.60;;;;;;;;;;10534994;28;20096;-78
2022/12/27 16:26:04;;;;;;;5.40;3.33;;;;;;;;;;10539515;28;20546;-79
2022/12/27 16:31:10;;;;;;;6.93;3.35;;;;;;;;;;10546869;28;20032;-81
2022/12/27 16:36:10;;;;;;;6.57;3.85;;;;;;;;;;10539523;28;20058;-78
2022/12/27 16:41:11;;;;;;;10.13;4.03;;;;;;;;;;10558978;28;20550;-79
2022/12/27 16:46:16;;;;;;;7.93;4.82;;;;;;;;;;10551707;28;20050;-79
2022/12/27 16:51:16;;;;;;;9.43;5.78;;;;;;;;;;10533312;28;20043;-80
2022/12/27 16:56:26;;;;;;;11.57;6.22;;;;;;;;;;10552459;28;20042;-79
2022/12/27 17:01:42;;;;;;;14.20;8.57;;;;;;;;;;10540817;28;20499;-81
2022/12/27 17:06:42;;;;;;;9.77;6.43;;;;;;;;;;10551843;28;20047;-81
2022/12/27 17:11:48;;;;;;;7.57;4.53;;;;;;;;;;10537334;28;20100;-78
2022/12/27 17:16:50;;;;;;;6.60;4.28;;;;;;;;;;10538585;28;20325;-77
2022/12/27 17:21:56;;;;;;;7.22;3.60;;;;;;;;;;10522324;28;20036;-77
2022/12/27 17:26:56;;;;;;;9.43;4.15;;;;;;;;;;10554184;28;20404;-80
2022/12/27 17:32:15;;;;;;;5.80;3.47;;;;;;;;;;10554533;28;20038;-79
2022/12/27 17:37:25;;;;;;;6.63;3.72;;;;;;;;;;10554834;28;20277;-79
2022/12/27 17:48:13;;;;;;;7.78;4.47;;;;;;;;;;10537908;28;21008;-79
2022/12/27 17:58:36;;;;;;;12.38;7.95;;;;;;;;;;10541408;28;20448;-77
2022/12/27 18:03:42;;;;;;;14.48;9.20;;;;;;;;;;10574052;28;20123;-79
2022/12/27 18:08:45;;;;;;;13.57;8.73;;;;;;;;;;10551182;28;20571;-79
2022/12/27 18:13:52;;;;;;;14.35;9.20;;;;;;;;;;10557972;28;20043;-80
2022/12/27 18:18:53;;;;;;;11.07;7.60;;;;;;;;;;10558228;28;20036;-79
2022/12/27 18:23:55;;;;;;;12.55;7.10;;;;;;;;;;10566694;28;20111;-80
2022/12/27 18:28:57;;;;;;;8.82;7.32;;;;;;;;;;10554676;28;20135;-79
2022/12/27 18:34:03;;;;;;;12.15;7.38;;;;;;;;;;10540348;28;20066;-79
2022/12/27 18:39:07;;;;;;;11.80;7.20;;;;;;;;;;10558256;28;20090;-80
2022/12/27 18:44:13;;;;;;;9.00;6.80;;;;;;;;;;10572702;28;20059;-77
2022/12/27 18:49:24;;;;;;;12.40;7.30;;;;;;;;;;10579814;28;20048;-81
2022/12/27 18:54:28;;;;;;;10.15;6.35;;;;;;;;;;10578733;28;20415;-81
2022/12/27 18:59:30;;;;;;;13.05;9.23;;;;;;;;;;10558461;28;20042;-81
2022/12/27 19:04:31;;;;;;;16.95;12.18;;;;;;;;;;10545750;28;20559;-84
2022/12/27 19:09:37;;;;;;;14.60;10.60;;;;;;;;;;10582186;27;20093;-81
2022/12/27 19:14:42;;;;;;;15.75;11.25;;;;;;;;;;10558226;28;20063;-78
2022/12/27 19:19:44;;;;;;;15.80;10.40;;;;;;;;;;10538482;28;20381;-80
2022/12/27 19:24:44;;;;;;;12.57;8.48;;;;;;;;;;10549687;28;20031;-79
2022/12/27 19:29:51;;;;;;;16.20;9.18;;;;;;;;;;10551554;28;20051;-80
2022/12/27 19:34:53;;;;;;;18.48;10.32;;;;;;;;;;10541677;28;20096;-78
2022/12/27 19:39:54;;;;;;;14.18;9.65;;;;;;;;;;10576056;28;20123;-78
2022/12/27 19:44:55;;;;;;;21.35;12.02;;;;;;;;;;10540159;28;20126;-79
2022/12/27 19:49:57;;;;;;;22.13;12.68;;;;;;;;;;10559856;28;20050;-77
2022/12/27 19:55:04;;;;;;;27.77;15.60;;;;;;;;;;10543960;28;20043;-80
2022/12/27 20:00:16;;;;;;;20.40;12.38;;;;;;;;;;10556008;28;20166;-80
2022/12/27 20:05:17;;;;;;;15.35;9.95;;;;;;;;;;10538270;28;20031;-82
2022/12/27 20:10:17;;;;;;;13.85;9.07;;;;;;;;;;10567581;28;20479;-78
2022/12/27 20:15:18;;;;;;;16.20;9.85;;;;;;;;;;10521404;28;20059;-80
2022/12/27 20:20:18;;;;;;;15.95;10.13;;;;;;;;;;10534608;28;20032;-80
2022/12/27 20:25:19;;;;;;;17.10;10.20;;;;;;;;;;10548588;28;20061;-82
2022/12/27 20:30:19;;;;;;;15.68;10.05;;;;;;;;;;10548999;28;20048;-79
2022/12/27 20:35:20;;;;;;;15.98;9.75;;;;;;;;;;10560782;28;20032;-79
2022/12/27 20:40:21;;;;;;;14.45;9.38;;;;;;;;;;10562105;28;20043;-82
2022/12/27 20:45:22;;;;;;;15.27;10.00;;;;;;;;;;10573474;28;20040;-79
2022/12/27 20:50:24;;;;;;;16.40;10.23;;;;;;;;;;10612559;28;20016;-79
2022/12/27 20:55:24;;;;;;;23.98;10.40;;;;;;;;;;10558972;28;20032;-79
2022/12/27 21:00:26;;;;;;;18.15;10.63;;;;;;;;;;10540043;28;20036;-79
2022/12/27 21:05:27;;;;;;;17.50;10.48;;;;;;;;;;10534701;28;20030;-83
2022/12/27 21:10:29;;;;;;;14.80;7.90;;;;;;;;;;10564678;27;20023;-81
2022/12/27 21:15:29;;;;;;;15.15;8.27;;;;;;;;;;10535256;27;20104;-79
2022/12/27 21:20:29;;;;;;;13.38;8.50;;;;;;;;;;10562313;27;20038;-80
2022/12/27 21:25:31;;;;;;;12.13;7.50;;;;;;;;;;10572404;28;20067;-78
2022/12/27 21:30:32;;;;;;;11.95;6.97;;;;;;;;;;10543839;28;20405;-78
2022/12/27 21:35:32;;;;;;;14.07;7.72;;;;;;;;;;10561348;28;20076;-80
2022/12/27 21:40:32;;;;;;;10.77;7.10;;;;;;;;;;10537859;28;20452;-81
2022/12/27 21:45:34;;;;;;;13.15;7.30;;;;;;;;;;10567786;28;20038;-80
2022/12/27 21:50:34;;;;;;;14.23;8.43;;;;;;;;;;10537838;28;20681;-80
2022/12/27 21:55:34;;;;;;;16.80;8.50;;;;;;;;;;10542755;28;20096;-79
2022/12/27 22:00:36;;;;;;;13.25;8.23;;;;;;;;;;10556299;28;20285;-80
2022/12/27 22:05:36;;;;;;;14.50;8.82;;;;;;;;;;10556779;28;20032;-78
2022/12/27 22:10:36;;;;;;;19.30;8.48;;;;;;;;;;10560868;28;20521;-80
2022/12/27 22:15:37;;;;;;;13.83;8.33;;;;;;;;;;10560469;28;20035;-78
2022/12/27 22:20:37;;;;;;;12.40;7.68;;;;;;;;;;10553180;28;20285;-79
2022/12/27 22:25:41;;;;;;;13.35;7.95;;;;;;;;;;10530653;28;20511;-78
2022/12/27 22:30:41;;;;;;;13.18;7.70;;;;;;;;;;10559040;28;20035;-80
2022/12/27 22:35:42;;;;;;;14.43;7.03;;;;;;;;;;10542327;28;20031;-81
2022/12/27 22:40:44;;;;;;;10.30;6.30;;;;;;;;;;10558764;28;20285;-79
2022/12/27 22:45:44;;;;;;;11.70;6.97;;;;;;;;;;10553203;28;20035;-79
2022/12/27 22:50:45;;;;;;;11.57;7.17;;;;;;;;;;10554752;28;20036;-80
2022/12/27 22:55:47;;;;;;;12.18;7.25;;;;;;;;;;10560044;28;20290;-80
2022/12/27 23:00:49;;;;;;;11.60;7.13;;;;;;;;;;10564091;28;20063;-80
2022/12/27 23:05:56;;;;;;;11.15;6.63;;;;;;;;;;10554916;28;20400;-80
2022/12/27 23:11:05;;;;;;;11.18;6.53;;;;;;;;;;10584252;28;20096;-82
2022/12/27 23:16:06;;;;;;;9.52;6.00;;;;;;;;;;10591973;28;20043;-81
2022/12/27 23:21:08;;;;;;;10.85;7.40;;;;;;;;;;10571929;28;20099;-79
2022/12/27 23:26:11;;;;;;;11.40;5.93;;;;;;;;;;10558443;28;20048;-81
2022/12/27 23:31:13;;;;;;;10.80;6.53;;;;;;;;;;10550070;28;20408;-83
2022/12/27 23:36:14;;;;;;;12.10;6.65;;;;;;;;;;10550064;28;20047;-81
2022/12/27 23:41:16;;;;;;;10.98;6.10;;;;;;;;;;10559239;28;20040;-78
2022/12/27 23:46:18;;;;;;;10.02;6.10;;;;;;;;;;10547992;28;20533;-80
2022/12/27 23:51:19;;;;;;;9.40;5.70;;;;;;;;;;10537416;28;20060;-80
2022/12/27 23:56:22;;;;;;;10.10;6.53;;;;;;;;;;10547835;28;20039;-77
